Time;durP1;ratioP1;P1;durP2;ratioP2;P2;SDS_P1;SDS_P2;PMS_P1;PMS_P2;Temp;Humidity;BMP_temperature;BMP_pressure;BME280_temperature;BME280_humidity;BME280_pressure;Samples;Min_cycle;Max_cycle;Signal;HPM_P1;HPM_P2
2023/06/27 00:00:17;;;;;;;;;1.25;1.25;;;;;23.47;31.51;101791.03;5069459;27;46416;-67
2023/06/27 00:02:43;;;;;;;;;2.25;1.25;;;;;23.45;31.67;101795.63;5060746;28;46127;-67
2023/06/27 00:05:08;;;;;;;;;1.00;1.00;;;;;23.44;31.76;101793.91;5074700;28;45329;-67
2023/06/27 00:07:34;;;;;;;;;2.00;1.00;;;;;23.42;31.88;101783.25;5062521;28;45474;-67
2023/06/27 00:09:59;;;;;;;;;2.75;1.25;;;;;23.41;31.67;101789.56;5060806;28;47883;-66
2023/06/27 00:12:25;;;;;;;;;2.75;1.00;;;;;23.38;31.98;101784.34;5062165;28;45295;-66
2023/06/27 00:14:51;;;;;;;;;4.25;1.00;;;;;23.39;31.77;101793.28;5062362;28;45299;-67
2023/06/27 00:17:16;;;;;;;;;1.25;1.25;;;;;23.36;31.58;101792.47;5060870;28;45572;-67
2023/06/27 00:19:44;;;;;;;;;1.50;1.25;;;;;23.35;31.81;101788.06;5071886;28;46217;-66
2023/06/27 00:22:11;;;;;;;;;4.00;1.25;;;;;23.35;31.84;101793.41;5060897;28;45364;-66
2023/06/27 00:24:36;;;;;;;;;1.50;1.00;;;;;23.35;32.16;101793.41;5062193;28;45305;-67
2023/06/27 00:27:02;;;;;;;;;2.00;1.50;;;;;23.34;31.85;101788.13;5065098;28;45499;-66
2023/06/27 00:29:27;;;;;;;;;1.00;1.00;;;;;23.34;31.99;101796.19;5061903;28;46212;-67
2023/06/27 00:31:55;;;;;;;;;2.25;1.75;;;;;23.32;32.00;101796.28;5062566;28;45406;-66
2023/06/27 00:34:20;;;;;;;;;3.25;1.00;;;;;23.30;31.74;101794.63;5063805;28;45445;-66
2023/06/27 00:36:45;;;;;;;;;2.25;1.50;;;;;23.29;32.16;101793.72;5082386;28;45331;-66
2023/06/27 00:39:11;;;;;;;;;1.50;1.25;;;;;23.29;32.10;101791.03;5077608;28;45266;-66
2023/06/27 00:41:36;;;;;;;;;1.00;1.00;;;;;23.29;32.28;101799.09;5067660;28;45482;-66
2023/06/27 00:44:07;;;;;;;;;1.00;1.00;;;;;23.26;32.20;101793.91;5060820;28;46044;-66
2023/06/27 00:46:37;;;;;;;;;1.00;1.00;;;;;23.23;32.29;101788.69;5068649;28;45497;-66
2023/06/27 00:49:06;;;;;;;;;3.75;2.25;;;;;23.19;32.21;101788.00;5076079;28;47255;-66
2023/06/27 00:51:32;;;;;;;;;2.50;1.00;;;;;23.21;31.98;101793.28;5060477;28;45580;-66
2023/06/27 00:53:58;;;;;;;;;2.75;1.00;;;;;23.19;32.31;101787.09;5060240;28;45330;-66
2023/06/27 00:56:26;;;;;;;;;2.00;0.75;;;;;23.18;32.54;101794.28;5060192;28;45598;-66
2023/06/27 00:58:53;;;;;;;;;2.00;1.75;;;;;23.14;31.96;101789.97;5058995;28;46821;-66
2023/06/27 01:01:19;;;;;;;;;2.75;1.50;;;;;23.15;32.38;101796.22;5060856;28;45308;-66
2023/06/27 01:03:45;;;;;;;;;1.00;1.00;;;;;23.10;32.41;101793.78;5059443;28;45342;-66
2023/06/27 01:06:17;;;;;;;;;2.00;1.00;;;;;23.10;32.27;101799.13;5059944;28;45423;-66
2023/06/27 01:08:50;;;;;;;;;2.00;1.00;;;;;23.09;32.43;101804.56;5060060;28;47681;-66
2023/06/27 01:11:21;;;;;;;;;3.00;2.00;;;;;23.07;32.36;101801.09;5061105;28;45424;-66
2023/06/27 01:13:54;;;;;;;;;2.25;1.00;;;;;22.99;32.20;101790.75;5059821;28;45561;-66
2023/06/27 01:16:22;;;;;;;;;1.75;0.50;;;;;23.00;32.16;101798.72;5061390;28;45343;-66
2023/06/27 01:18:48;;;;;;;;;1.00;1.00;;;;;22.97;32.26;101801.56;5060950;28;45327;-66
2023/06/27 01:21:16;;;;;;;;;1.25;1.25;;;;;22.95;32.54;101797.22;5061014;28;45272;-66
2023/06/27 01:23:52;;;;;;;;;2.00;2.00;;;;;22.92;32.42;101794.69;5073342;28;45287;-66
2023/06/27 01:26:17;;;;;;;;;1.00;1.00;;;;;22.87;32.46;101793.09;5060749;28;45399;-66
2023/06/27 01:28:43;;;;;;;;;5.00;2.00;;;;;22.86;32.47;101801.22;5060491;28;45894;-67
2023/06/27 01:31:19;;;;;;;;;3.00;1.00;;;;;22.82;32.83;101780.91;5059614;28;45295;-66
2023/06/27 01:33:51;;;;;;;;;1.75;1.75;;;;;22.82;32.53;101789.78;5061197;28;45360;-66
2023/06/27 01:36:56;;;;;;;;;2.75;2.00;;;;;22.81;32.68;101784.53;5078533;28;45299;-66
2023/06/27 01:39:28;;;;;;;;;0.50;0.00;;;;;22.78;32.69;101793.56;5061215;28;47027;-66
2023/06/27 01:42:01;;;;;;;;;2.00;2.00;;;;;22.77;32.81;101796.34;5059004;28;45411;-66
2023/06/27 01:44:27;;;;;;;;;0.75;0.75;;;;;22.73;32.58;101793.78;5060686;28;45484;-66
2023/06/27 01:46:53;;;;;;;;;1.00;1.00;;;;;22.72;32.55;101791.19;5071551;28;45505;-66
2023/06/27 01:49:18;;;;;;;;;2.00;0.50;;;;;22.71;32.40;101792.13;5062275;28;45411;-66
2023/06/27 01:51:44;;;;;;;;;1.00;1.00;;;;;22.70;32.30;101790.38;5060728;28;45345;-66
2023/06/27 01:54:09;;;;;;;;;1.00;1.00;;;;;22.67;32.75;101779.84;5060738;28;45350;-66
2023/06/27 01:56:35;;;;;;;;;3.00;1.25;;;;;22.66;33.02;101781.63;5060514;28;45420;-66
2023/06/27 01:59:01;;;;;;;;;1.00;1.00;;;;;22.66;32.90;101783.47;5060332;28;45928;-66
2023/06/27 02:01:26;;;;;;;;;2.25;1.00;;;;;22.63;32.85;101784.47;5060568;28;45311;-66
2023/06/27 02:03:52;;;;;;;;;1.25;1.25;;;;;22.62;32.89;101796.13;5060280;28;45291;-66
2023/06/27 02:06:18;;;;;;;;;3.00;1.75;;;;;22.59;32.82;101782.91;5060506;28;45236;-67
2023/06/27 02:08:44;;;;;;;;;1.00;1.00;;;;;22.59;33.02;101790.03;5060227;28;45990;-66
2023/06/27 02:11:10;;;;;;;;;1.50;1.00;;;;;22.58;33.26;101780.28;5060366;28;45218;-66
2023/06/27 02:13:37;;;;;;;;;1.00;1.00;;;;;22.55;32.66;101779.50;5058756;28;45246;-66
2023/06/27 02:16:02;;;;;;;;;2.50;1.00;;;;;22.52;32.83;101781.44;5060309;28;45434;-66
2023/06/27 02:18:27;;;;;;;;;2.75;2.75;;;;;22.51;32.77;101785.91;5060140;28;45438;-66
2023/06/27 02:20:53;;;;;;;;;3.25;1.50;;;;;22.50;32.77;101786.88;5059997;28;45365;-66
2023/06/27 02:23:18;;;;;;;;;2.00;1.00;;;;;22.50;32.95;101788.69;5059740;28;45342;-66
2023/06/27 02:25:43;;;;;;;;;2.00;1.00;;;;;22.49;33.02;101784.25;5059813;28;45426;-66
2023/06/27 02:28:09;;;;;;;;;2.00;1.00;;;;;22.46;32.95;101779.91;5059482;28;52295;-66
2023/06/27 02:30:34;;;;;;;;;3.00;1.50;;;;;22.47;33.07;101786.16;5060213;28;45401;-66
2023/06/27 02:32:59;;;;;;;;;1.00;1.00;;;;;22.43;32.97;101782.75;5058734;28;45270;-66
2023/06/27 02:35:25;;;;;;;;;2.00;2.00;;;;;22.40;32.62;101778.41;5070591;28;45581;-66
2023/06/27 02:37:50;;;;;;;;;1.50;1.50;;;;;22.45;32.97;101794.28;5080178;28;46261;-66
2023/06/27 02:40:16;;;;;;;;;1.75;1.00;;;;;22.42;32.96;101786.38;5080199;28;45466;-66
2023/06/27 02:42:41;;;;;;;;;1.00;1.00;;;;;22.42;33.09;101797.09;5079814;28;45394;-66
2023/06/27 02:45:07;;;;;;;;;1.00;1.00;;;;;22.39;32.80;101791.88;5080588;28;45377;-66
2023/06/27 02:47:32;;;;;;;;;2.75;0.25;;;;;22.36;32.89;101789.31;5076233;28;45408;-66
2023/06/27 02:49:57;;;;;;;;;1.50;1.50;;;;;22.36;32.96;101781.28;5059947;28;45341;-66
2023/06/27 02:52:23;;;;;;;;;0.00;0.00;;;;;22.35;33.29;101793.81;5059871;28;45316;-66
2023/06/27 02:54:48;;;;;;;;;2.75;1.75;;;;;22.33;33.39;101793.00;5059822;28;45326;-66
2023/06/27 02:57:14;;;;;;;;;4.00;2.50;;;;;22.33;33.05;101800.19;5059395;28;46131;-66
2023/06/27 02:59:39;;;;;;;;;1.75;1.00;;;;;22.29;33.15;101790.53;5059945;28;45259;-66
2023/06/27 03:02:04;;;;;;;;;1.00;1.00;;;;;22.31;32.89;101799.38;5059866;28;45232;-66
2023/06/27 03:04:30;;;;;;;;;1.00;1.00;;;;;22.28;33.08;101792.34;5059930;28;45451;-66
2023/06/27 03:06:55;;;;;;;;;2.00;1.00;;;;;22.25;32.94;101797.88;5059486;28;45261;-66
2023/06/27 03:09:21;;;;;;;;;1.50;1.50;;;;;22.25;33.22;101800.53;5059788;28;45212;-66
2023/06/27 03:11:46;;;;;;;;;3.75;1.00;;;;;22.20;33.05;101798.06;5058219;28;45765;-66
2023/06/27 03:14:17;;;;;;;;;4.50;1.50;;;;;22.21;33.25;101801.59;5059607;28;45236;-66
2023/06/27 03:16:42;;;;;;;;;2.00;1.00;;;;;22.19;33.34;101793.66;5059399;28;46573;-65
2023/06/27 03:19:07;;;;;;;;;4.00;1.00;;;;;22.20;33.63;101783.78;5057924;28;45363;-66
2023/06/27 03:21:33;;;;;;;;;1.75;1.75;;;;;22.13;33.48;101782.38;5059522;28;45270;-66
2023/06/27 03:23:58;;;;;;;;;3.00;2.50;;;;;22.10;33.24;101780.72;5059701;28;45567;-65
2023/06/27 03:26:27;;;;;;;;;1.75;1.75;;;;;22.09;33.49;101787.00;5057859;28;45440;-66
2023/06/27 03:28:53;;;;;;;;;1.25;1.25;;;;;22.08;33.34;101793.28;5059299;28;45470;-66
2023/06/27 03:31:18;;;;;;;;;3.50;2.00;;;;;22.08;33.81;101794.13;5057981;28;45269;-65
2023/06/27 03:33:44;;;;;;;;;1.25;1.00;;;;;22.06;33.58;101798.72;5059346;28;45252;-66
2023/06/27 03:36:09;;;;;;;;;2.00;1.00;;;;;22.03;33.57;101790.81;5073992;28;46726;-66
2023/06/27 03:38:34;;;;;;;;;2.00;2.00;;;;;22.00;33.68;101790.97;5062992;28;45448;-66
2023/06/27 03:41:00;;;;;;;;;2.00;2.00;;;;;21.96;33.68;101777.78;5062820;28;45370;-66
2023/06/27 03:43:25;;;;;;;;;1.00;1.00;;;;;21.97;34.14;101783.06;5062540;28;45509;-66
2023/06/27 03:45:50;;;;;;;;;3.50;2.75;;;;;21.98;33.99;101781.28;5064789;28;46084;-66
2023/06/27 03:48:16;;;;;;;;;3.75;3.75;;;;;21.98;33.46;101776.78;5072885;28;45486;-66
2023/06/27 03:50:41;;;;;;;;;2.00;1.25;;;;;21.97;33.88;101783.06;5062683;28;45343;-66
2023/06/27 03:53:07;;;;;;;;;1.00;1.00;;;;;21.97;33.93;101782.19;5062672;28;45520;-66
2023/06/27 03:55:33;;;;;;;;;2.50;2.50;;;;;21.96;33.78;101783.13;5062247;28;45961;-66
2023/06/27 03:57:59;;;;;;;;;2.50;2.00;;;;;21.94;34.11;101775.19;5062416;28;45387;-66
2023/06/27 04:00:25;;;;;;;;;2.75;2.00;;;;;21.92;34.24;101777.94;5062461;28;45235;-66
2023/06/27 04:02:50;;;;;;;;;1.50;1.50;;;;;21.90;34.12;101778.94;5062328;28;45244;-66
2023/06/27 04:05:15;;;;;;;;;3.00;3.00;;;;;21.88;34.39;101772.78;5062157;28;45252;-66
2023/06/27 04:07:41;;;;;;;;;3.00;2.00;;;;;21.87;34.30;101784.41;5062427;28;45419;-66
2023/06/27 04:10:07;;;;;;;;;3.25;2.00;;;;;21.82;34.41;101773.91;5062374;28;45218;-66
2023/06/27 04:12:32;;;;;;;;;3.75;3.00;;;;;21.80;34.15;101774.94;5062122;28;45299;-66
2023/06/27 04:14:58;;;;;;;;;2.50;2.00;;;;;21.79;34.46;101776.75;5061973;28;45419;-66
2023/06/27 04:17:23;;;;;;;;;3.00;3.00;;;;;21.78;34.41;101776.81;5062297;28;45365;-66
2023/06/27 04:19:48;;;;;;;;;2.25;1.25;;;;;21.75;34.18;101780.50;5062159;28;45399;-66
2023/06/27 04:22:14;;;;;;;;;3.00;2.75;;;;;21.75;34.34;101785.84;5060771;28;45371;-66
2023/06/27 04:24:39;;;;;;;;;2.00;2.00;;;;;21.73;34.43;101783.22;5061848;28;46464;-66
2023/06/27 04:27:08;;;;;;;;;5.50;4.00;;;;;21.72;34.33;101786.88;5061758;28;45378;-66
2023/06/27 04:29:34;;;;;;;;;2.25;1.00;;;;;21.70;34.23;101785.19;5062004;28;45243;-66
2023/06/27 04:31:59;;;;;;;;;4.25;2.75;;;;;21.70;34.56;101794.06;5061919;28;45768;-66
2023/06/27 04:34:25;;;;;;;;;1.25;1.25;;;;;21.65;34.79;101793.41;5063941;28;47466;-66
2023/06/27 04:36:51;;;;;;;;;2.75;2.75;;;;;21.67;34.58;101793.34;5082101;28;45251;-66
2023/06/27 04:39:16;;;;;;;;;6.50;5.50;;;;;21.67;34.81;101804.03;5082197;28;45232;-66
2023/06/27 04:41:41;;;;;;;;;1.50;1.00;;;;;21.60;35.00;101779.38;5071463;28;45304;-66
2023/06/27 04:44:07;;;;;;;;;4.00;4.00;;;;;21.62;34.89;101781.97;5061628;28;45390;-66
2023/06/27 04:46:32;;;;;;;;;6.75;5.00;;;;;21.61;34.51;101780.22;5069302;28;45317;-66
2023/06/27 04:48:58;;;;;;;;;3.50;0.75;;;;;21.60;34.85;101779.38;5066263;27;45398;-66
2023/06/27 04:51:27;;;;;;;;;7.00;3.00;;;;;21.58;34.54;101784.81;5061932;28;45408;-67
2023/06/27 04:53:53;;;;;;;;;2.50;2.00;;;;;21.58;34.87;101783.91;5061329;28;46364;-66
2023/06/27 04:56:18;;;;;;;;;4.00;2.25;;;;;21.54;35.02;101772.44;5061349;28;45255;-66
2023/06/27 04:58:44;;;;;;;;;4.00;3.00;;;;;21.56;34.68;101780.47;5061521;28;45208;-66
2023/06/27 05:01:09;;;;;;;;;4.00;4.00;;;;;21.53;34.92;101773.38;5061580;28;45644;-66
2023/06/27 05:03:37;;;;;;;;;2.25;1.00;;;;;21.56;35.16;101780.47;5059818;28;45355;-66
2023/06/27 05:06:06;;;;;;;;;10.50;8.00;;;;;21.52;34.74;101769.00;5061416;28;45418;-66
2023/06/27 05:08:32;;;;;;;;;5.00;4.00;;;;;21.52;35.41;101777.03;5059947;28;45399;-66
2023/06/27 05:10:58;;;;;;;;;0.75;0.00;;;;;21.53;34.79;101765.34;5061306;28;45472;-66
2023/06/27 05:13:23;;;;;;;;;4.75;3.50;;;;;21.55;35.29;101776.00;5059403;28;46952;-66
2023/06/27 05:15:48;;;;;;;;;2.00;2.00;;;;;21.57;34.90;101774.16;5061246;28;45289;-66
2023/06/27 05:18:14;;;;;;;;;2.00;2.00;;;;;21.55;35.61;101782.25;5061314;28;45230;-66
2023/06/27 05:20:43;;;;;;;;;5.25;3.00;;;;;21.55;35.48;101784.03;5061034;28;45410;-66
2023/06/27 05:23:09;;;;;;;;;3.50;2.25;;;;;21.51;35.38;101772.59;5059361;27;45493;-68
2023/06/27 05:25:34;;;;;;;;;3.75;2.50;;;;;21.50;35.81;101775.34;5071223;28;45535;-69
2023/06/27 05:28:00;;;;;;;;;2.00;2.00;;;;;21.48;35.24;101782.56;5068907;28;45467;-67
2023/06/27 05:30:29;;;;;;;;;3.50;2.00;;;;;21.44;35.37;101784.50;5061046;28;45446;-67
2023/06/27 05:32:55;;;;;;;;;2.00;2.00;;;;;21.43;35.89;101788.97;5066102;28;45488;-65
2023/06/27 05:35:21;;;;;;;;;3.50;3.00;;;;;21.42;35.70;101799.72;5067832;28;45149;-65
2023/06/27 05:37:47;;;;;;;;;4.00;3.00;;;;;21.37;36.20;101805.28;5070448;28;45279;-65
2023/06/27 05:40:12;;;;;;;;;3.75;2.25;;;;;21.33;35.78;101790.28;5070694;27;45430;-66
2023/06/27 05:42:38;;;;;;;;;3.00;3.00;;;;;21.37;36.16;101807.06;5076969;28;46342;-66
2023/06/27 05:45:04;;;;;;;;;4.00;4.00;;;;;21.35;36.35;101804.47;5068625;28;45374;-63
2023/06/27 05:47:29;;;;;;;;;4.75;4.75;;;;;21.33;36.49;101806.31;5065804;28;45802;-64
2023/06/27 05:49:55;;;;;;;;;5.00;4.00;;;;;21.30;36.19;101795.78;5072652;28;45441;-63
2023/06/27 05:52:20;;;;;;;;;5.25;3.50;;;;;21.26;36.63;101789.69;5064458;27;47022;-65
2023/06/27 05:54:45;;;;;;;;;4.75;4.00;;;;;21.26;36.18;101780.81;5080511;28;45373;-65
2023/06/27 05:57:11;;;;;;;;;6.25;3.50;;;;;21.24;36.76;101783.56;5077901;27;45429;-63
2023/06/27 05:59:36;;;;;;;;;4.00;4.00;;;;;21.24;36.99;101780.91;5066470;28;45562;-65
2023/06/27 06:02:02;;;;;;;;;4.50;2.75;;;;;21.21;36.54;101777.47;5073446;27;45535;-65
2023/06/27 06:04:27;;;;;;;;;3.00;3.00;;;;;21.19;36.57;101774.84;5064361;28;45312;-66
2023/06/27 06:06:53;;;;;;;;;3.25;3.25;;;;;21.17;37.03;101775.84;5066644;28;45227;-65
2023/06/27 06:09:18;;;;;;;;;3.25;3.00;;;;;21.20;36.63;101770.38;5067168;28;45496;-65
2023/06/27 06:11:44;;;;;;;;;5.00;3.50;;;;;21.21;37.05;101778.34;5073074;28;45364;-63
2023/06/27 06:14:09;;;;;;;;;3.50;3.50;;;;;21.22;36.86;101772.06;5073282;28;45366;-63
2023/06/27 06:16:35;;;;;;;;;5.00;2.25;;;;;21.23;37.01;101780.94;5066974;28;45289;-63
2023/06/27 06:19:01;;;;;;;;;7.00;3.00;;;;;21.25;37.26;101781.75;5067291;27;45411;-63
2023/06/27 06:21:27;;;;;;;;;6.50;3.25;;;;;21.26;36.80;101779.00;5082337;27;45474;-63
2023/06/27 06:23:52;;;;;;;;;3.00;3.00;;;;;21.25;37.05;101785.28;5079655;27;45493;-63
2023/06/27 06:26:18;;;;;;;;;2.00;2.00;;;;;21.29;37.68;101777.16;5077344;28;45303;-63
2023/06/27 06:28:43;;;;;;;;;9.75;8.00;;;;;21.29;36.94;101766.44;5080063;28;45526;-63
2023/06/27 06:31:11;;;;;;;;;4.50;2.00;;;;;21.32;37.22;101771.66;5078484;27;46073;-62
2023/06/27 06:33:37;;;;;;;;;10.50;9.00;;;;;21.34;37.34;101775.13;5078739;27;45339;-62
2023/06/27 06:36:04;;;;;;;;;6.00;5.50;;;;;21.37;37.22;101783.00;5078623;28;45210;-62
2023/06/27 06:38:29;;;;;;;;;4.75;3.00;;;;;21.38;37.84;101782.97;5089896;27;45397;-62
2023/06/27 06:40:54;;;;;;;;;6.75;5.00;;;;;21.38;37.39;101777.63;5079692;27;45200;-63
2023/06/27 06:43:23;;;;;;;;;3.50;2.00;;;;;21.41;37.58;101787.31;5074863;28;45208;-61
2023/06/27 06:45:49;;;;;;;;;5.00;3.25;;;;;21.44;37.84;101787.16;5073132;27;45273;-64
2023/06/27 06:48:14;;;;;;;;;4.00;4.00;;;;;21.43;38.10;101780.97;5083075;27;45426;-64
2023/06/27 06:50:39;;;;;;;;;9.50;5.50;;;;;21.48;37.87;101787.91;5078380;27;46125;-63
2023/06/27 06:53:06;;;;;;;;;7.25;4.00;;;;;21.50;38.16;101788.72;5078765;28;45280;-63
2023/06/27 06:55:31;;;;;;;;;3.25;2.25;;;;;21.49;37.95;101779.81;5079817;27;45482;-63
2023/06/27 06:57:56;;;;;;;;;3.00;3.00;;;;;21.51;37.78;101788.66;5074976;27;45469;-62
2023/06/27 07:00:22;;;;;;;;;9.00;5.00;;;;;21.58;37.95;101791.94;5083633;27;47309;-63
2023/06/27 07:02:47;;;;;;;;;6.50;4.75;;;;;21.60;38.33;101795.44;5071218;28;45227;-62
2023/06/27 07:05:12;;;;;;;;;7.50;4.00;;;;;21.61;38.12;101788.25;5077807;28;45418;-63
2023/06/27 07:07:38;;;;;;;;;5.75;3.25;;;;;21.63;37.79;101789.06;5078484;28;45654;-62
2023/06/27 07:10:04;;;;;;;;;2.00;2.00;;;;;21.63;37.91;101787.25;5080306;28;46365;-63
2023/06/27 07:12:29;;;;;;;;;4.50;3.25;;;;;21.65;38.43;101796.09;5085133;27;45779;-63
2023/06/27 07:14:54;;;;;;;;;5.00;3.00;;;;;21.65;38.25;101798.75;5081875;27;45417;-63
2023/06/27 07:17:20;;;;;;;;;19.75;15.00;;;;;21.65;38.12;101796.09;5083532;27;45211;-63
2023/06/27 07:19:45;;;;;;;;;5.00;5.00;;;;;21.66;37.99;101792.47;5082891;27;46272;-62
2023/06/27 07:22:10;;;;;;;;;4.25;3.00;;;;;21.66;38.04;101789.81;5083051;27;45708;-63
2023/06/27 07:24:36;;;;;;;;;5.00;5.00;;;;;21.71;38.71;101794.94;5071771;27;46328;-62
2023/06/27 07:27:02;;;;;;;;;6.00;4.50;;;;;21.69;38.14;101786.97;5082765;27;45399;-63
2023/06/27 07:29:27;;;;;;;;;5.75;3.75;;;;;21.75;38.43;101796.56;5082997;27;47271;-62
2023/06/27 07:31:52;;;;;;;;;5.25;5.00;;;;;21.73;38.73;101793.94;5082709;28;45267;-63
2023/06/27 07:34:18;;;;;;;;;6.25;4.75;;;;;21.78;38.36;101792.88;5079526;27;45264;-63
2023/06/27 07:36:43;;;;;;;;;4.75;3.25;;;;;21.80;38.68;101793.66;5074663;27;45418;-64
2023/06/27 07:39:10;;;;;;;;;6.75;5.00;;;;;21.77;38.36;101786.63;5061279;28;46239;-63
2023/06/27 07:41:35;;;;;;;;;7.00;4.00;;;;;21.83;38.38;101793.53;5074495;27;45485;-63
2023/06/27 07:44:01;;;;;;;;;4.00;2.50;;;;;21.87;38.23;101795.13;5082904;27;45317;-62
2023/06/27 07:46:26;;;;;;;;;3.50;3.50;;;;;21.89;38.74;101799.47;5080900;28;45529;-63
2023/06/27 07:48:51;;;;;;;;;5.25;3.75;;;;;21.95;38.39;101792.09;5076502;27;45332;-63
2023/06/27 07:51:17;;;;;;;;;6.25;4.00;;;;;21.99;38.85;101799.06;5082498;28;45447;-63
2023/06/27 07:53:42;;;;;;;;;4.25;4.25;;;;;21.99;38.09;101797.25;5081599;27;45403;-63
2023/06/27 07:56:07;;;;;;;;;4.50;4.00;;;;;22.06;38.47;101808.53;5082445;27;45375;-63
2023/06/27 07:58:33;;;;;;;;;3.50;3.00;;;;;22.07;38.67;101805.81;5081757;27;48635;-63
2023/06/27 08:00:58;;;;;;;;;3.50;3.00;;;;;22.14;38.40;101816.19;5073211;28;45426;-64
2023/06/27 08:03:24;;;;;;;;;3.75;3.75;;;;;22.19;38.83;101811.53;5068791;27;45378;-64
2023/06/27 08:05:53;;;;;;;;;5.25;3.75;;;;;22.20;38.55;101813.25;5072745;27;45244;-65
2023/06/27 08:08:19;;;;;;;;;4.25;1.75;;;;;22.24;38.33;101804.16;5069177;27;47259;-65
2023/06/27 08:10:44;;;;;;;;;5.00;4.00;;;;;22.24;38.52;101806.81;5073874;27;46362;-67
2023/06/27 08:13:09;;;;;;;;;4.00;4.00;;;;;22.24;38.30;101804.16;5067448;27;45477;-65
2023/06/27 08:15:35;;;;;;;;;4.50;4.00;;;;;22.27;38.80;101798.63;5077876;28;45698;-65
2023/06/27 08:18:02;;;;;;;;;3.75;3.00;;;;;22.29;38.33;101802.13;5081095;28;46561;-64
2023/06/27 08:20:27;;;;;;;;;3.00;1.75;;;;;22.32;38.55;101801.97;5082121;28;45251;-66
2023/06/27 08:22:53;;;;;;;;;4.25;3.00;;;;;22.33;38.33;101792.16;5081367;28;45335;-64
2023/06/27 08:25:18;;;;;;;;;6.00;5.00;;;;;22.39;38.36;101792.75;5068394;28;45445;-66
2023/06/27 08:27:43;;;;;;;;;3.75;3.75;;;;;22.44;38.32;101794.31;5074850;28;45231;-65
2023/06/27 08:30:09;;;;;;;;;4.00;3.00;;;;;22.47;38.52;101794.19;5062023;28;45210;-66
2023/06/27 08:32:34;;;;;;;;;7.00;2.50;;;;;22.45;38.52;101778.22;5071220;28;45363;-65
2023/06/27 08:35:01;;;;;;;;;3.00;3.00;;;;;22.54;38.27;101792.94;5073705;28;45649;-66
2023/06/27 08:37:27;;;;;;;;;5.25;4.50;;;;;22.57;38.51;101787.44;5072341;28;46391;-65
2023/06/27 08:39:52;;;;;;;;;4.00;3.00;;;;;22.63;37.92;101784.47;5069383;28;45287;-65
2023/06/27 08:42:18;;;;;;;;;4.00;4.00;;;;;22.69;38.41;101773.47;5071416;28;45382;-65
2023/06/27 08:44:44;;;;;;;;;4.00;2.75;;;;;22.71;37.99;101763.53;5070184;28;46515;-65
2023/06/27 08:47:12;;;;;;;;;5.50;4.00;;;;;22.77;38.21;101767.72;5073173;28;45401;-66
2023/06/27 08:49:42;;;;;;;;;4.75;3.50;;;;;22.82;38.00;101770.19;5075019;27;45408;-66
2023/06/27 08:52:13;;;;;;;;;7.25;4.00;;;;;22.86;38.13;101769.94;5070374;28;45444;-69
2023/06/27 08:54:46;;;;;;;;;6.25;3.00;;;;;22.92;37.90;101767.88;5077544;28;45366;-68
2023/06/27 08:57:12;;;;;;;;;4.50;3.25;;;;;22.92;38.12;101755.38;5070489;28;45490;-67
2023/06/27 08:59:42;;;;;;;;;5.50;4.00;;;;;23.04;37.69;101765.47;5061344;28;45327;-65
2023/06/27 09:02:11;;;;;;;;;3.00;2.00;;;;;23.09;37.81;101762.53;5060140;28;45431;-64
2023/06/27 09:04:41;;;;;;;;;4.25;2.00;;;;;23.15;37.94;101769.41;5062760;28;45277;-65
2023/06/27 09:07:06;;;;;;;;;3.50;3.00;;;;;23.20;38.18;101767.41;5072710;28;48520;-64
2023/06/27 09:09:34;;;;;;;;;6.75;4.25;;;;;23.26;38.01;101763.50;5075779;28;45325;-65
2023/06/27 09:12:02;;;;;;;;;6.75;3.50;;;;;23.32;37.93;101765.88;5061270;28;45374;-65
2023/06/27 09:14:27;;;;;;;;;5.25;4.50;;;;;23.36;38.00;101754.94;5061072;28;45505;-64
2023/06/27 09:16:53;;;;;;;;;3.00;3.00;;;;;23.41;37.83;101748.44;5060978;28;46117;-65
2023/06/27 09:19:20;;;;;;;;;3.00;3.00;;;;;23.39;37.63;101745.84;5060902;28;45318;-64
2023/06/27 09:21:47;;;;;;;;;3.25;3.00;;;;;23.47;38.06;101748.13;5076815;28;45494;-64
2023/06/27 09:24:14;;;;;;;;;4.00;4.00;;;;;23.52;37.92;101748.75;5061071;28;45347;-65
2023/06/27 09:26:40;;;;;;;;;6.25;6.25;;;;;23.55;37.64;101751.28;5072152;28;47007;-66
2023/06/27 09:29:05;;;;;;;;;3.00;3.00;;;;;23.58;37.27;101748.41;5074751;28;45568;-65
2023/06/27 09:31:33;;;;;;;;;5.00;3.00;;;;;23.60;37.29;101743.00;5077857;27;45275;-65
2023/06/27 09:34:11;;;;;;;;;4.00;2.50;;;;;23.63;37.28;101741.00;5075617;28;45610;-65
2023/06/27 09:36:41;;;;;;;;;4.75;3.00;;;;;23.67;37.21;101739.91;5074688;28;46422;-65
2023/06/27 09:39:08;;;;;;;;;3.25;3.25;;;;;23.58;36.87;101704.66;5081232;28;45322;-65
2023/06/27 09:41:48;;;;;;;;;4.50;4.50;;;;;23.73;37.20;101721.72;5062756;28;45254;-65
2023/06/27 09:44:15;;;;;;;;;3.25;2.00;;;;;23.79;37.36;101724.09;5079586;28;45450;-64
2023/06/27 09:46:42;;;;;;;;;4.50;1.50;;;;;23.83;37.03;101718.44;5080652;28;46175;-65
2023/06/27 09:49:09;;;;;;;;;3.25;3.25;;;;;23.88;37.16;101715.53;5079667;28;45407;-65
2023/06/27 09:51:34;;;;;;;;;4.50;3.25;;;;;23.94;37.21;101715.22;5079583;27;45331;-65
2023/06/27 09:54:01;;;;;;;;;2.75;2.75;;;;;24.00;36.72;101709.50;5081026;28;45247;-65
2023/06/27 09:56:31;;;;;;;;;2.00;2.00;;;;;24.07;37.14;101709.16;5080402;28;46424;-64
2023/06/27 09:59:09;;;;;;;;;4.00;4.00;;;;;24.12;36.66;101710.63;5079315;28;45275;-64
2023/06/27 10:01:40;;;;;;;;;5.75;3.00;;;;;24.18;36.85;101698.69;5080059;28;45251;-65
2023/06/27 10:04:07;;;;;;;;;5.25;5.25;;;;;24.26;36.76;101696.41;5069255;28;45327;-65
2023/06/27 10:06:33;;;;;;;;;6.50;4.75;;;;;24.33;36.58;101705.00;5074075;27;48135;-64
2023/06/27 10:08:59;;;;;;;;;5.00;2.00;;;;;24.39;36.55;101701.97;5080503;27;45462;-64
2023/06/27 10:11:25;;;;;;;;;3.00;3.00;;;;;24.43;36.46;101708.03;5078963;28;45336;-64
2023/06/27 10:13:52;;;;;;;;;6.00;3.00;;;;;24.50;36.27;101707.59;5080503;28;45271;-64
2023/06/27 10:16:18;;;;;;;;;3.00;3.00;;;;;24.55;36.50;101696.56;5080424;28;46351;-64
2023/06/27 10:18:44;;;;;;;;;3.25;2.00;;;;;24.62;36.53;101695.25;5078571;28;45500;-65
2023/06/27 10:21:10;;;;;;;;;2.75;2.00;;;;;24.70;36.39;101693.97;5068772;28;45390;-65
2023/06/27 10:23:39;;;;;;;;;3.25;2.25;;;;;24.73;36.02;101688.41;5069862;28;45437;-64
2023/06/27 10:26:05;;;;;;;;;3.00;3.00;;;;;24.80;36.21;101695.16;5070500;28;46992;-63
2023/06/27 10:28:31;;;;;;;;;2.25;2.00;;;;;24.88;36.14;101698.25;5069870;28;45314;-64
2023/06/27 10:30:57;;;;;;;;;3.00;2.75;;;;;24.93;35.77;101693.47;5072428;27;45281;-64
2023/06/27 10:33:31;;;;;;;;;2.25;2.25;;;;;24.99;35.80;101697.59;5070423;28;45310;-63
2023/06/27 10:36:02;;;;;;;;;3.25;3.25;;;;;25.04;35.51;101692.81;5067344;28;45550;-63
2023/06/27 10:38:35;;;;;;;;;4.00;2.50;;;;;25.09;35.81;101696.09;5067053;28;45354;-63
2023/06/27 10:41:06;;;;;;;;;5.00;3.75;;;;;25.16;35.73;101685.84;5069327;28;45496;-63
2023/06/27 10:43:52;;;;;;;;;4.50;3.00;;;;;25.25;35.46;101687.94;5065972;27;45241;-63
2023/06/27 10:46:22;;;;;;;;;4.75;4.00;;;;;25.39;35.46;101694.34;5071750;28;45485;-64
2023/06/27 10:48:50;;;;;;;;;7.25;6.75;;;;;25.51;35.21;101690.88;5071154;27;45210;-66
2023/06/27 10:51:17;;;;;;;;;6.75;4.00;;;;;25.64;35.13;101699.06;5068992;28;45450;-65
2023/06/27 10:53:46;;;;;;;;;5.25;5.25;;;;;25.81;35.31;101692.63;5065926;28;45746;-65
2023/06/27 10:56:27;;;;;;;;;6.50;5.25;;;;;26.00;35.04;101700.38;5074465;27;48352;-63
2023/06/27 10:58:58;;;;;;;;;5.75;4.00;;;;;26.20;34.91;101707.19;5065921;28;45475;-64
2023/06/27 11:01:25;;;;;;;;;4.50;4.25;;;;;26.40;35.13;101696.91;5077113;27;45366;-66
2023/06/27 11:03:56;;;;;;;;;4.75;3.75;;;;;26.59;34.96;101700.09;5081948;27;45566;-66
2023/06/27 11:06:38;;;;;;;;;2.00;2.00;;;;;26.80;35.30;101702.34;5060532;28;46621;-65
2023/06/27 11:09:03;;;;;;;;;2.75;2.50;;;;;27.00;35.17;101683.94;5068672;28;45296;-65
2023/06/27 11:11:29;;;;;;;;;4.25;3.00;;;;;27.18;34.90;101682.66;5072724;28;45351;-65
2023/06/27 11:14:09;;;;;;;;;4.00;4.00;;;;;27.38;34.73;101691.19;5076280;28;45490;-65
2023/06/27 11:16:35;;;;;;;;;2.25;2.25;;;;;27.56;34.51;101687.22;5074311;28;46984;-65
2023/06/27 11:19:03;;;;;;;;;2.50;2.25;;;;;27.73;34.84;101686.00;5070702;28;45281;-64
2023/06/27 11:21:30;;;;;;;;;4.75;3.25;;;;;27.90;34.22;101683.91;5072790;28;45325;-64